createdAt,value
2018-03-22T00:01:00.701Z,-0.80
2018-03-22T00:02:03.929Z,-0.70
2018-03-22T00:03:07.175Z,-0.80
2018-03-22T00:04:10.394Z,-0.80
2018-03-22T00:05:13.768Z,-0.80
2018-03-22T00:06:16.991Z,-0.80
2018-03-22T00:07:21.020Z,-0.80
2018-03-22T00:08:24.250Z,-0.80
2018-03-22T00:09:27.514Z,-0.90
2018-03-22T00:10:30.737Z,-0.90
2018-03-22T00:11:34.812Z,-0.80
2018-03-22T00:12:38.032Z,-0.80
2018-03-22T00:13:41.262Z,-0.80
2018-03-22T00:14:44.582Z,-0.80
2018-03-22T00:15:47.806Z,-0.80
2018-03-22T00:16:51.080Z,-0.90
2018-03-22T00:17:54.317Z,-0.80
2018-03-22T00:18:57.570Z,-0.90
2018-03-22T00:20:00.838Z,-0.80
2018-03-22T00:21:04.808Z,-0.70
2018-03-22T00:22:18.639Z,-0.70
2018-03-22T00:23:22.653Z,-0.70
2018-03-22T00:24:25.893Z,-0.70
2018-03-22T00:25:29.132Z,-0.70
2018-03-22T00:26:32.350Z,-0.70
2018-03-22T00:27:35.571Z,-0.80
2018-03-22T00:28:39.609Z,-0.80
2018-03-22T00:29:42.837Z,-0.90
2018-03-22T00:30:46.070Z,-0.80
2018-03-22T00:31:49.348Z,-1.00
2018-03-22T00:32:52.587Z,-1.00
2018-03-22T00:33:55.821Z,-0.90
2018-03-22T00:34:59.125Z,-0.90
2018-03-22T00:36:02.389Z,-0.90
2018-03-22T00:37:05.652Z,-0.90
2018-03-22T00:38:08.905Z,-0.90
2018-03-22T00:39:12.922Z,-0.80
2018-03-22T00:40:16.960Z,-0.80
2018-03-22T00:41:20.200Z,-0.80
2018-03-22T00:42:24.254Z,-0.80
2018-03-22T00:43:27.513Z,-0.90
2018-03-22T00:44:30.729Z,-0.80
2018-03-22T00:45:34.030Z,-0.80
2018-03-22T00:46:37.357Z,-0.90
2018-03-22T00:47:40.662Z,-0.90
2018-03-22T00:48:43.939Z,-0.80
2018-03-22T00:49:47.155Z,-0.80
2018-03-22T00:50:50.509Z,-0.80
2018-03-22T00:51:53.719Z,-0.80
2018-03-22T00:52:56.982Z,-0.80
2018-03-22T00:54:00.370Z,-0.80
2018-03-22T00:55:03.666Z,-0.80
2018-03-22T00:56:06.925Z,-0.90
2018-03-22T00:57:10.152Z,-0.90
2018-03-22T00:58:13.389Z,-0.90
2018-03-22T00:59:16.625Z,-0.90
2018-03-22T01:00:19.862Z,-0.90
2018-03-22T01:01:23.161Z,-1.00
2018-03-22T01:02:26.397Z,-0.90
2018-03-22T01:03:30.386Z,-0.90
2018-03-22T01:04:34.380Z,-0.90
2018-03-22T01:05:37.616Z,-1.00
2018-03-22T01:06:40.839Z,-1.00
2018-03-22T01:07:44.061Z,-1.00
2018-03-22T01:08:47.286Z,-1.00
2018-03-22T01:09:50.523Z,-1.00
2018-03-22T01:10:54.523Z,-1.10
2018-03-22T01:11:58.519Z,-1.10
2018-03-22T01:13:01.770Z,-1.10
2018-03-22T01:14:04.994Z,-1.10
2018-03-22T01:15:08.222Z,-1.10
2018-03-22T01:16:11.460Z,-1.10
2018-03-22T01:17:14.690Z,-1.10
2018-03-22T01:18:17.925Z,-1.10
2018-03-22T01:19:21.167Z,-1.20
2018-03-22T01:20:24.404Z,-1.20
2018-03-22T01:21:27.617Z,-1.30
2018-03-22T01:22:30.837Z,-1.20
2018-03-22T01:23:34.834Z,-1.10
2018-03-22T01:24:38.844Z,-1.10
2018-03-22T01:25:42.816Z,-1.10
2018-03-22T01:26:46.068Z,-1.10
2018-03-22T01:27:49.301Z,-1.20
2018-03-22T01:28:52.531Z,-1.20
2018-03-22T01:29:55.758Z,-1.30
2018-03-22T01:30:59.259Z,-1.30
2018-03-22T01:32:02.469Z,-1.30
2018-03-22T01:33:05.734Z,-1.30
2018-03-22T01:34:08.987Z,-1.20
2018-03-22T01:35:12.198Z,-1.30
2018-03-22T01:36:16.222Z,-1.20
2018-03-22T01:37:19.512Z,-1.30
2018-03-22T01:38:23.646Z,-1.30
2018-03-22T01:39:26.898Z,-1.30
2018-03-22T01:40:30.182Z,-1.30
2018-03-22T01:41:33.418Z,-1.30
2018-03-22T01:42:37.573Z,-1.30
2018-03-22T01:43:40.798Z,-1.30
2018-03-22T01:44:44.034Z,-1.30
2018-03-22T01:45:47.295Z,-1.30
2018-03-22T01:46:50.544Z,-1.30
2018-03-22T01:47:53.772Z,-1.30
2018-03-22T01:48:57.171Z,-1.30
2018-03-22T01:50:00.409Z,-1.30
2018-03-22T01:51:03.625Z,-1.30
2018-03-22T01:52:06.862Z,-1.30
2018-03-22T01:53:14.787Z,-1.30
2018-03-22T01:54:18.838Z,-1.30
2018-03-22T01:55:22.049Z,-1.30
2018-03-22T01:56:25.381Z,-1.30
2018-03-22T01:57:28.628Z,-1.40
2018-03-22T01:58:32.606Z,-1.40
2018-03-22T01:59:35.835Z,-1.40
2018-03-22T02:00:39.617Z,-1.30
2018-03-22T02:01:43.626Z,-1.30
2018-03-22T02:02:46.857Z,-1.30
2018-03-22T02:03:50.152Z,-1.30
2018-03-22T02:04:53.377Z,-1.30
2018-03-22T02:05:56.620Z,-1.40
2018-03-22T02:06:59.836Z,-1.40
2018-03-22T02:08:03.095Z,-1.40
2018-03-22T02:09:06.422Z,-1.40
2018-03-22T02:10:10.413Z,-1.50
2018-03-22T02:11:14.406Z,-1.50
2018-03-22T02:12:17.627Z,-1.60
2018-03-22T02:13:20.840Z,-1.50
2018-03-22T02:14:24.158Z,-1.60
2018-03-22T02:15:28.155Z,-1.50
2018-03-22T02:16:31.365Z,-1.50
2018-03-22T02:17:34.608Z,-1.50
2018-03-22T02:18:38.644Z,-1.50
2018-03-22T02:19:41.911Z,-1.50
2018-03-22T02:20:45.152Z,-1.50
2018-03-22T02:21:48.389Z,-1.50
2018-03-22T02:22:51.862Z,-1.40
2018-03-22T02:23:55.930Z,-1.40
2018-03-22T02:25:00.794Z,-1.40
2018-03-22T02:26:04.128Z,-1.40
2018-03-22T02:27:07.366Z,-1.40
2018-03-22T02:28:10.625Z,-1.40
2018-03-22T02:29:14.618Z,-1.30
2018-03-22T02:30:18.797Z,-1.50
2018-03-22T02:31:22.035Z,-1.50
2018-03-22T02:32:25.354Z,-1.50
2018-03-22T02:33:28.595Z,-1.60
2018-03-22T02:34:31.861Z,-1.60
2018-03-22T02:35:35.852Z,-1.70
2018-03-22T02:36:39.217Z,-1.70
2018-03-22T02:37:42.427Z,-1.70
2018-03-22T02:38:46.427Z,-1.60
2018-03-22T02:39:50.420Z,-1.60
2018-03-22T02:40:53.638Z,-1.60
2018-03-22T02:41:56.870Z,-1.60
2018-03-22T02:43:00.143Z,-1.60
2018-03-22T02:44:03.423Z,-1.50
2018-03-22T02:45:06.641Z,-1.60
2018-03-22T02:46:10.934Z,-1.60
2018-03-22T02:47:14.175Z,-1.60
2018-03-22T02:48:17.396Z,-1.60
2018-03-22T02:49:20.627Z,-1.60
2018-03-22T02:50:23.920Z,-1.60
2018-03-22T02:51:27.138Z,-1.60
2018-03-22T02:52:30.357Z,-1.60
2018-03-22T02:53:34.342Z,-1.60
2018-03-22T02:54:38.362Z,-1.60
2018-03-22T02:55:41.567Z,-1.60
2018-03-22T02:56:44.827Z,-1.50
2018-03-22T02:57:48.830Z,-1.50
2018-03-22T02:58:52.842Z,-1.50
2018-03-22T02:59:56.074Z,-1.50
2018-03-22T03:00:59.381Z,-1.50
2018-03-22T03:02:02.700Z,-1.50
2018-03-22T03:03:05.922Z,-1.50
2018-03-22T03:04:09.153Z,-1.60
2018-03-22T03:05:12.401Z,-1.60
2018-03-22T03:06:15.768Z,-1.60
2018-03-22T03:07:19.008Z,-1.60
2018-03-22T03:08:22.295Z,-1.60
2018-03-22T03:09:25.569Z,-1.70
2018-03-22T03:10:29.570Z,-1.90
2018-03-22T03:11:32.815Z,-1.90
2018-03-22T03:12:36.040Z,-1.90
2018-03-22T03:13:39.276Z,-1.90
2018-03-22T03:14:42.556Z,-1.90
2018-03-22T03:15:45.854Z,-1.80
2018-03-22T03:16:49.072Z,-1.90
2018-03-22T03:17:52.313Z,-1.90
2018-03-22T03:18:55.646Z,-1.90
2018-03-22T03:19:58.873Z,-1.90
2018-03-22T03:21:02.116Z,-1.90
2018-03-22T03:22:05.356Z,-1.90
2018-03-22T03:23:10.117Z,-1.90
2018-03-22T03:24:13.345Z,-1.90
2018-03-22T03:25:16.601Z,-1.80
2018-03-22T03:26:19.820Z,-1.80
2018-03-22T03:27:23.046Z,-1.80
2018-03-22T03:28:26.293Z,-1.80
2018-03-22T03:29:29.538Z,-1.80
2018-03-22T03:30:32.771Z,-1.80
2018-03-22T03:31:36.805Z,-1.90
2018-03-22T03:32:40.029Z,-1.90
2018-03-22T03:33:43.252Z,-1.90
2018-03-22T03:34:46.583Z,-1.80
2018-03-22T03:35:49.815Z,-1.80
2018-03-22T03:36:53.116Z,-1.80
2018-03-22T03:37:56.390Z,-1.70
2018-03-22T03:38:59.617Z,-1.70
2018-03-22T03:40:02.845Z,-1.70
2018-03-22T03:41:06.068Z,-1.70
2018-03-22T03:42:09.302Z,-1.70
2018-03-22T03:43:13.299Z,-1.80
2018-03-22T03:44:17.302Z,-1.80
2018-03-22T03:45:21.320Z,-1.80
2018-03-22T03:46:25.416Z,-1.80
2018-03-22T03:47:29.439Z,-1.80
2018-03-22T03:48:32.701Z,-1.80
2018-03-22T03:49:35.941Z,-1.80
2018-03-22T03:50:39.147Z,-1.80
2018-03-22T03:51:43.154Z,-1.80
2018-03-22T03:52:46.417Z,-1.80
2018-03-22T03:53:49.639Z,-1.70
2018-03-22T03:54:52.902Z,-1.80
2018-03-22T03:55:56.939Z,-1.80
2018-03-22T03:57:00.162Z,-1.80
2018-03-22T03:58:03.390Z,-1.80
2018-03-22T03:59:06.632Z,-1.80
2018-03-22T04:00:09.857Z,-1.70
2018-03-22T04:01:13.094Z,-1.70
2018-03-22T04:02:16.341Z,-1.80
2018-03-22T04:03:19.632Z,-1.80
2018-03-22T04:04:22.864Z,-1.80
2018-03-22T04:05:26.204Z,-1.80
2018-03-22T04:06:29.465Z,-1.90
2018-03-22T04:07:32.739Z,-2.00
2018-03-22T04:08:36.037Z,-2.00
2018-03-22T04:09:39.342Z,-2.00
2018-03-22T04:10:42.599Z,-2.00
2018-03-22T04:11:47.822Z,-2.10
2018-03-22T04:12:51.878Z,-2.10
2018-03-22T04:13:55.128Z,-2.10
2018-03-22T04:14:58.375Z,-2.00
2018-03-22T04:16:02.390Z,-2.00
2018-03-22T04:17:05.630Z,-2.00
2018-03-22T04:18:08.909Z,-2.00
2018-03-22T04:19:12.166Z,-2.00
2018-03-22T04:20:17.545Z,-1.90
2018-03-22T04:21:20.774Z,-2.00
2018-03-22T04:22:24.018Z,-2.00
2018-03-22T04:23:28.039Z,-2.00
2018-03-22T04:24:31.293Z,-2.00
2018-03-22T04:25:35.305Z,-2.10
2018-03-22T04:26:39.315Z,-2.10
2018-03-22T04:27:42.545Z,-2.20
2018-03-22T04:28:45.809Z,-2.10
2018-03-22T04:29:49.049Z,-2.10
2018-03-22T04:30:53.050Z,-2.20
2018-03-22T04:31:57.225Z,-2.20
2018-03-22T04:33:00.415Z,-2.20
2018-03-22T04:34:03.628Z,-2.20
2018-03-22T04:35:06.888Z,-2.20
2018-03-22T04:36:10.111Z,-2.10
2018-03-22T04:37:13.334Z,-2.20
2018-03-22T04:38:16.559Z,-2.20
2018-03-22T04:39:20.541Z,-2.30
2018-03-22T04:40:23.930Z,-2.30
2018-03-22T04:41:27.160Z,-2.20
2018-03-22T04:42:30.423Z,-2.20
2018-03-22T04:43:33.703Z,-2.30
2018-03-22T04:44:36.935Z,-2.30
2018-03-22T04:45:40.158Z,-2.30
2018-03-22T04:46:44.234Z,-2.40
2018-03-22T04:47:47.575Z,-2.40
2018-03-22T04:48:50.803Z,-2.40
2018-03-22T04:49:54.032Z,-2.40
2018-03-22T04:50:57.273Z,-2.40
2018-03-22T04:52:00.505Z,-2.40
2018-03-22T04:53:03.836Z,-2.40
2018-03-22T04:54:07.086Z,-2.40
2018-03-22T04:55:10.323Z,-2.30
2018-03-22T04:56:14.353Z,-2.30
2018-03-22T04:57:17.587Z,-2.40
2018-03-22T04:58:20.820Z,-2.40
2018-03-22T04:59:24.072Z,-2.40
2018-03-22T05:00:28.067Z,-2.40
2018-03-22T05:01:31.304Z,-2.50
2018-03-22T05:02:34.531Z,-2.40
2018-03-22T05:03:38.577Z,-2.40
2018-03-22T05:04:41.862Z,-2.50
2018-03-22T05:05:45.094Z,-2.50
2018-03-22T05:06:48.337Z,-2.50
2018-03-22T05:07:51.560Z,-2.50
2018-03-22T05:08:54.802Z,-2.40
2018-03-22T05:09:58.039Z,-2.40
2018-03-22T05:11:01.273Z,-2.50
2018-03-22T05:12:04.536Z,-2.40
2018-03-22T05:13:07.772Z,-2.40
2018-03-22T05:14:11.024Z,-2.40
2018-03-22T05:15:14.235Z,-2.40
2018-03-22T05:16:17.479Z,-2.40
2018-03-22T05:17:20.692Z,-2.40
2018-03-22T05:18:23.929Z,-2.40
2018-03-22T05:19:27.240Z,-2.40
2018-03-22T05:20:30.472Z,-2.40
2018-03-22T05:21:33.728Z,-2.40
2018-03-22T05:22:37.033Z,-2.40
2018-03-22T05:23:41.005Z,-2.40
2018-03-22T05:24:44.232Z,-2.40
2018-03-22T05:25:47.475Z,-2.40
2018-03-22T05:26:50.740Z,-2.50
2018-03-22T05:27:53.994Z,-2.50
2018-03-22T05:28:57.238Z,-2.40
2018-03-22T05:30:01.206Z,-2.40
2018-03-22T05:31:04.491Z,-2.50
2018-03-22T05:32:07.706Z,-2.50
2018-03-22T05:33:11.702Z,-2.50
2018-03-22T05:34:15.686Z,-2.50
2018-03-22T05:35:19.063Z,-2.50
2018-03-22T05:36:22.260Z,-2.50
2018-03-22T05:37:25.548Z,-2.50
2018-03-22T05:38:28.764Z,-2.40
2018-03-22T05:39:32.750Z,-2.40
2018-03-22T05:40:36.772Z,-2.40
2018-03-22T05:41:40.003Z,-2.40
2018-03-22T05:42:43.245Z,-2.40
2018-03-22T05:43:46.468Z,-2.40
2018-03-22T05:44:49.728Z,-2.40
2018-03-22T05:45:52.956Z,-2.30
2018-03-22T05:46:57.045Z,-2.20
2018-03-22T05:48:00.288Z,-2.30
2018-03-22T05:49:03.531Z,-2.30
2018-03-22T05:50:07.617Z,-2.20
2018-03-22T05:51:10.836Z,-2.20
2018-03-22T05:52:14.072Z,-2.20
2018-03-22T05:53:18.800Z,-2.30
2018-03-22T05:54:23.560Z,-2.30
2018-03-22T05:55:26.793Z,-2.30
2018-03-22T05:56:30.033Z,-2.20
2018-03-22T05:57:33.274Z,-2.30
2018-03-22T05:58:37.268Z,-2.20
2018-03-22T05:59:40.527Z,-2.30
2018-03-22T06:00:43.772Z,-2.20
2018-03-22T06:01:47.150Z,-2.20
2018-03-22T06:02:50.395Z,-2.20
2018-03-22T06:03:53.625Z,-2.10
2018-03-22T06:04:56.864Z,-2.10
2018-03-22T06:06:00.131Z,-2.10
2018-03-22T06:07:03.355Z,-2.10
2018-03-22T06:08:07.355Z,-2.20
2018-03-22T06:09:10.603Z,-2.20
2018-03-22T06:10:13.825Z,-2.20
2018-03-22T06:11:17.815Z,-2.30
2018-03-22T06:12:21.869Z,-2.20
2018-03-22T06:13:25.146Z,-2.20
2018-03-22T06:14:28.537Z,-2.20
2018-03-22T06:15:31.828Z,-2.20
2018-03-22T06:16:35.040Z,-2.10
2018-03-22T06:17:39.034Z,-2.10
2018-03-22T06:18:42.311Z,-2.10
2018-03-22T06:19:45.637Z,-2.00
2018-03-22T06:20:49.655Z,-2.00
2018-03-22T06:21:52.904Z,-2.00
2018-03-22T06:22:56.906Z,-1.90
2018-03-22T06:24:00.883Z,-1.90
2018-03-22T06:25:04.137Z,-2.00
2018-03-22T06:26:07.358Z,-1.90
2018-03-22T06:27:10.625Z,-1.90
2018-03-22T06:28:13.857Z,-1.80
2018-03-22T06:29:17.104Z,-1.80
2018-03-22T06:30:20.336Z,-1.90
2018-03-22T06:31:23.557Z,-1.90
2018-03-22T06:32:26.796Z,-2.00
2018-03-22T06:33:30.124Z,-1.90
2018-03-22T06:34:33.397Z,-2.00
2018-03-22T06:35:36.643Z,-2.00
2018-03-22T06:36:39.874Z,-2.00
2018-03-22T06:37:43.137Z,-2.00
2018-03-22T06:38:46.358Z,-1.90
2018-03-22T06:39:49.620Z,-1.90
2018-03-22T06:40:53.067Z,-1.90
2018-03-22T06:41:56.304Z,-2.00
2018-03-22T06:42:59.630Z,-2.00
2018-03-22T06:44:02.868Z,-1.90
2018-03-22T06:45:06.118Z,-2.00
2018-03-22T06:46:09.399Z,-1.90
2018-03-22T06:47:12.682Z,-1.90
2018-03-22T06:48:15.994Z,-1.90
2018-03-22T06:49:19.218Z,-1.80
2018-03-22T06:50:23.219Z,-1.70
2018-03-22T06:51:27.220Z,-1.70
2018-03-22T06:52:30.444Z,-1.70
2018-03-22T06:53:33.705Z,-1.70
2018-03-22T06:54:36.943Z,-1.60
2018-03-22T06:55:40.202Z,-1.50
2018-03-22T06:56:43.448Z,-1.40
2018-03-22T06:57:46.681Z,-1.50
2018-03-22T06:58:49.941Z,-1.40
2018-03-22T06:59:53.175Z,-1.40
2018-03-22T07:00:57.189Z,-1.30
2018-03-22T07:02:01.201Z,-1.40
2018-03-22T07:03:04.418Z,-1.40
2018-03-22T07:04:07.658Z,-1.40
2018-03-22T07:05:10.886Z,-1.40
2018-03-22T07:06:14.119Z,-1.40
2018-03-22T07:07:17.411Z,-1.40
2018-03-22T07:08:20.624Z,-1.40
2018-03-22T07:09:23.910Z,-1.50
2018-03-22T07:10:27.149Z,-1.50
2018-03-22T07:11:31.176Z,-1.50
2018-03-22T07:12:34.454Z,-1.50
2018-03-22T07:13:37.714Z,-1.40
2018-03-22T07:14:41.706Z,-1.30
2018-03-22T07:15:44.934Z,-1.30
2018-03-22T07:16:48.170Z,-1.20
2018-03-22T07:17:52.170Z,-1.10
2018-03-22T07:18:56.161Z,-1.00
2018-03-22T07:19:59.406Z,-1.10
2018-03-22T07:21:02.610Z,-1.00
2018-03-22T07:22:05.859Z,-1.00
2018-03-22T07:23:09.098Z,-0.90
2018-03-22T07:24:13.092Z,-0.80
2018-03-22T07:25:16.339Z,-0.80
2018-03-22T07:26:19.603Z,-0.80
2018-03-22T07:27:22.824Z,-0.90
2018-03-22T07:28:26.064Z,-0.90
2018-03-22T07:29:29.345Z,-0.90
2018-03-22T07:30:32.564Z,-0.70
2018-03-22T07:31:35.818Z,-0.60
2018-03-22T07:32:39.054Z,-0.50
2018-03-22T07:33:42.290Z,-0.70
2018-03-22T07:34:45.528Z,-0.70
2018-03-22T07:35:49.520Z,-0.40
2018-03-22T07:36:52.821Z,-0.40
2018-03-22T07:37:56.017Z,-0.40
2018-03-22T07:39:00.063Z,-0.20
2018-03-22T07:40:03.284Z,-0.20
2018-03-22T07:41:06.524Z,-0.10
2018-03-22T07:42:09.764Z,-0.10
2018-03-22T07:43:19.401Z,0.00
2018-03-22T07:44:29.224Z,0.10
2018-03-22T07:45:33.229Z,0.10
2018-03-22T07:46:36.469Z,0.10
2018-03-22T07:47:39.686Z,0.10
2018-03-22T07:48:42.962Z,0.20
2018-03-22T07:49:46.169Z,0.20
2018-03-22T07:50:49.406Z,0.00
2018-03-22T07:51:53.397Z,0.10
2018-03-22T07:52:57.422Z,-0.10
2018-03-22T07:54:00.647Z,-0.10
2018-03-22T07:55:03.887Z,-0.20
2018-03-22T07:56:07.096Z,-0.10
2018-03-22T07:57:10.375Z,-0.10
2018-03-22T07:58:13.582Z,0.00
2018-03-22T07:59:16.816Z,0.00
2018-03-22T08:00:20.056Z,0.10
2018-03-22T08:01:23.375Z,0.10
2018-03-22T08:02:26.610Z,0.00
2018-03-22T08:03:29.950Z,0.10
2018-03-22T08:04:33.185Z,0.20
2018-03-22T08:05:36.435Z,0.30
2018-03-22T08:06:39.796Z,0.20
2018-03-22T08:07:43.760Z,0.50
2018-03-22T08:08:47.756Z,0.60
2018-03-22T08:09:50.986Z,0.60
2018-03-22T08:10:54.206Z,0.70
2018-03-22T08:11:57.429Z,0.60
2018-03-22T08:13:01.435Z,0.60
2018-03-22T08:14:05.441Z,0.70
2018-03-22T08:15:08.756Z,0.70
2018-03-22T08:16:12.024Z,0.70
2018-03-22T08:17:15.299Z,0.60
2018-03-22T08:18:18.528Z,0.60
2018-03-22T08:19:21.755Z,0.70
2018-03-22T08:20:25.052Z,0.80
2018-03-22T08:21:28.309Z,0.90
2018-03-22T08:22:32.325Z,0.90
2018-03-22T08:23:35.609Z,0.90
2018-03-22T08:24:39.614Z,1.10
2018-03-22T08:25:43.671Z,1.10
2018-03-22T08:26:46.894Z,1.10
2018-03-22T08:27:50.133Z,1.10
2018-03-22T08:28:53.408Z,1.20
2018-03-22T08:29:56.667Z,1.20
2018-03-22T08:30:59.889Z,1.30
2018-03-22T08:32:03.124Z,1.30
2018-03-22T08:33:06.349Z,1.40
2018-03-22T08:34:09.576Z,1.50
2018-03-22T08:35:12.812Z,1.50
2018-03-22T08:36:16.027Z,1.40
2018-03-22T08:37:20.030Z,1.40
2018-03-22T08:38:23.274Z,1.40
2018-03-22T08:39:26.498Z,1.50
2018-03-22T08:40:30.464Z,1.70
2018-03-22T08:41:33.717Z,1.70
2018-03-22T08:42:37.072Z,1.90
2018-03-22T08:43:40.292Z,2.10
2018-03-22T08:44:43.525Z,2.20
2018-03-22T08:45:47.497Z,2.10
2018-03-22T08:46:50.846Z,2.00
2018-03-22T08:47:54.054Z,2.10
2018-03-22T08:48:57.283Z,2.00
2018-03-22T08:50:01.277Z,2.00
2018-03-22T08:51:05.259Z,1.90
2018-03-22T08:52:08.485Z,1.90
2018-03-22T08:53:12.454Z,1.90
2018-03-22T08:54:15.665Z,2.00
2018-03-22T08:55:18.900Z,2.10
2018-03-22T08:56:22.123Z,2.10
2018-03-22T08:57:25.356Z,2.10
2018-03-22T08:58:28.582Z,2.00
2018-03-22T08:59:32.562Z,1.70
2018-03-22T09:00:36.595Z,1.80
2018-03-22T09:01:39.808Z,1.80
2018-03-22T09:02:43.070Z,1.90
2018-03-22T09:03:46.298Z,2.10
2018-03-22T09:04:49.529Z,2.20
2018-03-22T09:05:52.748Z,2.30
2018-03-22T09:06:56.014Z,2.30
2018-03-22T09:07:59.245Z,2.30
2018-03-22T09:09:02.473Z,2.30
2018-03-22T09:10:05.682Z,2.20
2018-03-22T09:11:08.898Z,2.20
2018-03-22T09:12:12.875Z,2.20
2018-03-22T09:13:16.133Z,2.20
2018-03-22T09:14:19.369Z,2.20
2018-03-22T09:15:22.596Z,2.20
2018-03-22T09:16:25.809Z,2.30
2018-03-22T09:17:29.045Z,2.30
2018-03-22T09:18:32.250Z,2.30
2018-03-22T09:19:35.452Z,2.20
2018-03-22T09:20:38.669Z,2.40
2018-03-22T09:21:42.663Z,2.10
2018-03-22T09:22:46.645Z,2.10
2018-03-22T09:23:49.885Z,2.10
2018-03-22T09:24:53.106Z,2.30
2018-03-22T09:25:56.326Z,2.30
2018-03-22T09:27:05.565Z,2.40
2018-03-22T09:28:08.786Z,2.30
2018-03-22T09:29:11.990Z,2.30
2018-03-22T09:30:15.990Z,2.50
2018-03-22T09:31:19.990Z,2.40
2018-03-22T09:32:23.324Z,2.30
2018-03-22T09:33:26.562Z,2.20
2018-03-22T09:34:29.780Z,2.10
2018-03-22T09:35:32.996Z,2.00
2018-03-22T09:36:36.233Z,2.10
2018-03-22T09:37:39.455Z,2.00
2018-03-22T09:38:42.676Z,2.00
2018-03-22T09:39:46.686Z,2.00
2018-03-22T09:40:50.663Z,2.10
2018-03-22T09:41:53.948Z,2.10
2018-03-22T09:42:57.129Z,2.30
2018-03-22T09:44:00.332Z,2.30
2018-03-22T09:45:04.358Z,2.50
2018-03-22T09:46:07.644Z,2.50
2018-03-22T09:47:10.898Z,2.70
2018-03-22T09:48:14.912Z,2.70
2018-03-22T09:49:18.121Z,2.60
2018-03-22T09:50:21.350Z,2.70
2018-03-22T09:51:25.330Z,2.80
2018-03-22T09:52:28.568Z,2.80
2018-03-22T09:53:31.842Z,2.90
2018-03-22T09:54:35.811Z,2.90
2018-03-22T09:55:39.044Z,2.90
2018-03-22T09:56:42.266Z,3.00
2018-03-22T09:57:45.508Z,3.00
2018-03-22T09:58:48.742Z,3.10
2018-03-22T09:59:51.980Z,3.20
2018-03-22T10:00:55.231Z,3.20
2018-03-22T10:01:59.213Z,3.30
2018-03-22T10:03:02.481Z,3.20
2018-03-22T10:04:05.720Z,3.30
2018-03-22T10:05:08.998Z,3.20
2018-03-22T10:06:12.968Z,3.00
2018-03-22T10:07:16.231Z,3.00
2018-03-22T10:08:19.494Z,2.90
2018-03-22T10:09:22.723Z,2.70
2018-03-22T10:10:25.943Z,2.60
2018-03-22T10:11:29.174Z,2.70
2018-03-22T10:12:32.414Z,2.70
2018-03-22T10:13:35.632Z,2.70
2018-03-22T10:14:38.883Z,2.80
2018-03-22T10:15:42.108Z,2.90
2018-03-22T10:16:45.330Z,2.90
2018-03-22T10:17:48.565Z,2.90
2018-03-22T10:18:51.809Z,3.00
2018-03-22T10:19:55.050Z,3.10
2018-03-22T10:20:58.387Z,3.20
2018-03-22T10:22:01.611Z,3.30
2018-03-22T10:23:04.922Z,3.40
2018-03-22T10:24:08.178Z,3.40
2018-03-22T10:25:11.400Z,3.30
2018-03-22T10:26:14.623Z,3.40
2018-03-22T10:27:17.806Z,3.40
2018-03-22T10:28:21.049Z,3.50
2018-03-22T10:29:24.263Z,3.60
2018-03-22T10:30:27.479Z,3.60
2018-03-22T10:31:30.703Z,3.70
2018-03-22T10:32:33.933Z,3.70
2018-03-22T10:33:37.141Z,3.70
2018-03-22T10:34:41.162Z,3.70
2018-03-22T10:35:45.124Z,3.50
2018-03-22T10:36:48.332Z,3.50
2018-03-22T10:37:51.564Z,3.40
2018-03-22T10:38:54.766Z,3.40
2018-03-22T10:39:57.989Z,3.60
2018-03-22T10:41:01.282Z,3.70
2018-03-22T10:42:04.544Z,3.80
2018-03-22T10:43:07.790Z,3.90
2018-03-22T10:44:11.021Z,4.00
2018-03-22T10:45:14.245Z,4.10
2018-03-22T10:46:17.475Z,4.00
2018-03-22T10:47:21.526Z,4.00
2018-03-22T10:48:24.880Z,3.90
2018-03-22T10:49:28.057Z,3.80
2018-03-22T10:50:31.288Z,3.70
2018-03-22T10:51:34.502Z,3.60
2018-03-22T10:52:38.490Z,3.70
2018-03-22T10:53:41.705Z,3.70
2018-03-22T10:54:44.940Z,3.80
2018-03-22T10:55:48.211Z,3.90
2018-03-22T10:56:51.388Z,4.00
2018-03-22T10:57:54.597Z,4.00
2018-03-22T10:58:57.805Z,4.00
2018-03-22T11:00:01.098Z,4.10
2018-03-22T11:01:10.074Z,4.20
2018-03-22T11:02:18.938Z,4.30
2018-03-22T11:03:26.986Z,4.20
2018-03-22T11:04:30.208Z,4.10
2018-03-22T11:05:33.425Z,4.10
2018-03-22T11:06:36.636Z,4.10
2018-03-22T11:07:39.851Z,4.30
2018-03-22T11:08:43.108Z,4.20
2018-03-22T11:09:46.323Z,4.30
2018-03-22T11:10:49.552Z,4.40
2018-03-22T11:11:52.781Z,4.30
2018-03-22T11:12:55.988Z,4.20
2018-03-22T11:13:59.200Z,4.30
2018-03-22T11:15:02.420Z,4.30
2018-03-22T11:16:06.399Z,4.30
2018-03-22T11:17:09.625Z,4.30
2018-03-22T11:18:12.832Z,4.40
2018-03-22T11:19:16.049Z,4.50
2018-03-22T11:20:19.361Z,4.80
2018-03-22T11:21:22.688Z,5.00
2018-03-22T11:22:25.870Z,5.00
2018-03-22T11:23:29.086Z,5.00
2018-03-22T11:24:32.316Z,4.90
2018-03-22T11:25:35.532Z,4.60
2018-03-22T11:26:38.756Z,4.50
2018-03-22T11:27:41.963Z,4.60
2018-03-22T11:28:45.186Z,4.60
2018-03-22T11:29:48.469Z,4.60
2018-03-22T11:30:51.681Z,4.70
2018-03-22T11:31:55.709Z,4.60
2018-03-22T11:32:58.977Z,4.60
2018-03-22T11:34:02.358Z,4.60
2018-03-22T11:35:05.569Z,4.60
2018-03-22T11:36:08.773Z,4.70
2018-03-22T11:37:12.042Z,4.70
2018-03-22T11:38:15.250Z,4.60
2018-03-22T11:39:18.469Z,4.60
2018-03-22T11:40:21.685Z,4.60
2018-03-22T11:41:24.902Z,4.70
2018-03-22T11:42:28.163Z,4.70
2018-03-22T11:43:31.359Z,4.70
2018-03-22T11:44:34.550Z,4.70
2018-03-22T11:45:37.760Z,4.80
2018-03-22T11:46:40.969Z,4.60
2018-03-22T11:47:44.212Z,4.50
2018-03-22T11:48:48.196Z,4.60
2018-03-22T11:49:51.410Z,4.60
2018-03-22T11:50:54.625Z,4.60
2018-03-22T11:51:57.916Z,4.70
2018-03-22T11:53:01.126Z,4.70
2018-03-22T11:54:04.351Z,4.70
2018-03-22T11:55:07.646Z,4.80
2018-03-22T11:56:11.592Z,4.80
2018-03-22T11:57:14.798Z,4.70
2018-03-22T11:58:18.779Z,4.80
2018-03-22T11:59:22.029Z,4.80
2018-03-22T12:00:25.243Z,4.80
2018-03-22T12:01:28.458Z,4.90
2018-03-22T12:02:31.669Z,5.00
2018-03-22T12:03:34.886Z,4.90
2018-03-22T12:04:38.200Z,5.00
2018-03-22T12:05:42.199Z,4.90
2018-03-22T12:06:46.333Z,4.70
2018-03-22T12:07:49.554Z,4.70
2018-03-22T12:08:52.781Z,4.70
2018-03-22T12:09:56.065Z,4.80
2018-03-22T12:10:59.345Z,4.90
2018-03-22T12:12:02.573Z,5.10
2018-03-22T12:13:05.838Z,5.00
2018-03-22T12:14:09.045Z,5.10
2018-03-22T12:15:12.312Z,5.20
2018-03-22T12:16:15.546Z,5.00
2018-03-22T12:17:19.577Z,4.70
2018-03-22T12:18:23.549Z,4.70
2018-03-22T12:19:27.551Z,4.70
2018-03-22T12:20:31.563Z,4.80
2018-03-22T12:21:35.630Z,4.70
2018-03-22T12:22:38.783Z,4.70
2018-03-22T12:23:42.012Z,4.80
2018-03-22T12:24:45.992Z,4.90
2018-03-22T12:25:49.208Z,4.90
2018-03-22T12:26:52.505Z,5.00
2018-03-22T12:27:55.737Z,4.90
2018-03-22T12:28:58.962Z,4.90
2018-03-22T12:30:02.240Z,5.20
2018-03-22T12:31:06.226Z,5.20
2018-03-22T12:32:10.205Z,5.20
2018-03-22T12:33:13.414Z,5.10
2018-03-22T12:34:17.399Z,5.20
2018-03-22T12:35:20.611Z,5.20
2018-03-22T12:36:23.830Z,5.20
2018-03-22T12:37:27.030Z,5.20
2018-03-22T12:38:30.262Z,5.10
2018-03-22T12:39:33.461Z,5.10
2018-03-22T12:40:36.746Z,5.00
2018-03-22T12:41:40.680Z,5.00
2018-03-22T12:42:43.913Z,5.00
2018-03-22T12:43:47.145Z,5.00
2018-03-22T12:44:50.376Z,5.10
2018-03-22T12:45:53.594Z,5.10
2018-03-22T12:46:56.839Z,5.30
2018-03-22T12:48:00.053Z,5.30
2018-03-22T12:49:03.317Z,5.60
2018-03-22T12:50:07.290Z,5.60
2018-03-22T12:51:11.295Z,5.70
2018-03-22T12:52:15.303Z,5.60
2018-03-22T12:53:18.506Z,5.60
2018-03-22T12:54:21.798Z,5.40
2018-03-22T12:55:25.071Z,5.50
2018-03-22T12:56:28.281Z,5.50
2018-03-22T12:57:31.506Z,5.50
2018-03-22T12:58:35.493Z,5.50
2018-03-22T12:59:38.713Z,5.40
2018-03-22T13:00:41.912Z,5.40
2018-03-22T13:01:45.670Z,5.40
2018-03-22T13:02:49.653Z,5.50
2018-03-22T13:03:53.627Z,5.50
2018-03-22T13:04:56.874Z,5.50
2018-03-22T13:06:00.070Z,5.50
2018-03-22T13:07:03.313Z,5.60
2018-03-22T13:08:07.305Z,5.60
2018-03-22T13:09:11.278Z,5.50
2018-03-22T13:10:14.501Z,5.40
2018-03-22T13:11:18.513Z,5.40
2018-03-22T13:12:21.798Z,5.30
2018-03-22T13:13:25.772Z,5.20
2018-03-22T13:14:28.999Z,5.20
2018-03-22T13:15:32.193Z,5.30
2018-03-22T13:16:35.413Z,5.30
2018-03-22T13:17:38.638Z,5.20
2018-03-22T13:18:41.886Z,5.20
2018-03-22T13:19:45.057Z,5.10
2018-03-22T13:20:48.276Z,5.30
2018-03-22T13:21:51.482Z,5.50
2018-03-22T13:22:54.692Z,5.60
2018-03-22T13:23:57.920Z,5.70
2018-03-22T13:25:01.196Z,5.80
2018-03-22T13:26:05.212Z,5.90
2018-03-22T13:27:09.169Z,5.90
2018-03-22T13:28:12.395Z,5.80
2018-03-22T13:29:15.599Z,5.80
2018-03-22T13:30:18.793Z,5.80
2018-03-22T13:31:22.020Z,5.90
2018-03-22T13:32:26.020Z,6.00
2018-03-22T13:33:30.032Z,5.90
2018-03-22T13:34:34.029Z,5.80
2018-03-22T13:35:38.023Z,6.00
2018-03-22T13:36:41.993Z,6.10
2018-03-22T13:37:45.221Z,6.10
2018-03-22T13:38:48.431Z,6.30
2018-03-22T13:39:51.651Z,6.50
2018-03-22T13:40:54.890Z,6.20
2018-03-22T13:41:58.090Z,6.10
2018-03-22T13:43:01.302Z,6.10
2018-03-22T13:44:05.325Z,6.40
2018-03-22T13:45:08.528Z,6.40
2018-03-22T13:46:11.740Z,6.70
2018-03-22T13:47:14.942Z,7.00
2018-03-22T13:48:18.156Z,7.20
2018-03-22T13:49:21.502Z,7.50